Time;durP1;ratioP1;P1;durP2;ratioP2;P2;SDS_P1;SDS_P2;PMS_P1;PMS_P2;Temp;Humidity;BMP_temperature;BMP_pressure;BME280_temperature;BME280_humidity;BME280_pressure;Samples;Min_cycle;Max_cycle;Signal;HPM_P1;HPM_P2
2020/12/10 05:01:28;;;;;;;75.57;31.97;;;0.70;99.90;;;;;;5310232;24;179970;-77
2020/12/10 05:03:57;;;;;;;104.27;35.27;;;0.60;99.90;;;;;;4642300;29;181152;-76
2020/12/10 05:06:23;;;;;;;72.53;31.87;;;0.80;99.90;;;;;;4649270;29;178557;-75
2020/12/10 05:08:50;;;;;;;64.80;30.57;;;0.80;99.90;;;;;;4647451;29;177942;-74
2020/12/10 05:11:36;;;;;;;81.30;33.80;;;0.70;99.90;;;;;;4649379;29;177939;-76
2020/12/10 05:14:02;;;;;;;68.67;31.07;;;0.80;99.90;;;;;;4645670;29;182782;-76
2020/12/10 05:16:29;;;;;;;68.23;32.30;;;0.80;99.90;;;;;;4663002;29;181458;-75
2020/12/10 05:18:55;;;;;;;66.80;30.80;;;0.80;99.90;;;;;;4661860;29;179376;-76
2020/12/10 05:21:21;;;;;;;62.70;31.40;;;0.80;99.90;;;;;;4648166;29;179967;-75
2020/12/10 05:23:48;;;;;;;69.47;32.07;;;0.70;99.90;;;;;;4647482;29;179959;-75
2020/12/10 05:26:14;;;;;;;64.93;29.47;;;0.70;99.90;;;;;;4649415;29;178128;-76
2020/12/10 05:28:48;;;;;;;68.07;32.73;;;0.70;99.90;;;;;;4646389;29;178124;-72
2020/12/10 05:31:19;;;;;;;68.13;31.83;;;0.70;99.90;;;;;;4647802;29;177530;-75
2020/12/10 05:33:56;;;;;;;66.23;31.30;;;0.70;99.90;;;;;;4647058;29;180957;-76
2020/12/10 05:36:23;;;;;;;72.23;31.67;;;0.70;99.90;;;;;;4649028;29;178152;-74
2020/12/10 05:39:02;;;;;;;75.87;32.63;;;0.80;99.90;;;;;;4646701;29;183902;-77
2020/12/10 05:41:29;;;;;;;78.67;33.57;;;0.70;99.90;;;;;;4647693;29;178070;-76
2020/12/10 05:44:11;;;;;;;67.87;30.60;;;0.70;99.90;;;;;;4648920;29;179787;-75
2020/12/10 05:46:37;;;;;;;67.43;32.63;;;0.70;99.90;;;;;;4639853;29;178377;-75
2020/12/10 05:49:04;;;;;;;66.00;31.67;;;0.80;99.90;;;;;;4662725;29;177987;-75
2020/12/10 05:51:44;;;;;;;65.17;31.20;;;0.70;99.90;;;;;;4646617;29;178975;-70
2020/12/10 05:54:13;;;;;;;60.30;30.07;;;0.70;99.90;;;;;;4647953;29;178774;-75
2020/12/10 05:57:01;;;;;;;72.60;31.80;;;0.70;99.90;;;;;;4648611;29;178679;-74
2020/12/10 05:59:28;;;;;;;76.33;31.93;;;0.80;99.90;;;;;;4649739;29;178021;-75
2020/12/10 06:02:06;;;;;;;61.70;30.50;;;0.70;99.90;;;;;;4648016;29;177909;-74
2020/12/10 06:04:33;;;;;;;70.67;31.47;;;0.70;99.90;;;;;;4642646;29;186440;-74
2020/12/10 06:07:00;;;;;;;68.87;32.67;;;0.70;99.90;;;;;;4642296;29;181906;-73
2020/12/10 06:09:27;;;;;;;72.13;31.83;;;0.70;99.90;;;;;;4645276;29;177948;-76
2020/12/10 06:12:04;;;;;;;66.67;32.67;;;0.70;99.90;;;;;;4644819;29;179031;-74
2020/12/10 06:14:30;;;;;;;63.10;30.73;;;0.70;99.90;;;;;;4645397;29;179048;-75
2020/12/10 06:17:07;;;;;;;92.50;34.33;;;0.70;99.90;;;;;;4657808;29;179945;-75
2020/12/10 06:19:34;;;;;;;92.97;32.87;;;0.70;99.90;;;;;;4642187;29;179194;-76
2020/12/10 06:22:24;;;;;;;60.37;30.47;;;0.70;99.90;;;;;;4642966;29;176675;-74
2020/12/10 06:24:58;;;;;;;105.63;36.10;;;0.70;99.90;;;;;;4646592;29;179842;-75
2020/12/10 06:27:26;;;;;;;66.57;30.80;;;0.70;99.90;;;;;;4643211;29;180169;-73
2020/12/10 06:30:24;;;;;;;76.83;31.83;;;0.60;99.90;;;;;;4642989;29;182090;-75
2020/12/10 06:32:51;;;;;;;75.73;30.83;;;0.70;99.90;;;;;;4653486;29;178627;-75
2020/12/10 06:35:34;;;;;;;70.67;32.53;;;0.70;99.90;;;;;;4646374;29;178950;-73
2020/12/10 06:38:07;;;;;;;79.40;31.63;;;0.70;99.90;;;;;;4647397;29;178669;-75
2020/12/10 06:40:41;;;;;;;73.73;31.73;;;0.70;99.90;;;;;;4648253;29;178672;-76
2020/12/10 06:43:09;;;;;;;67.77;31.40;;;0.70;99.90;;;;;;4648763;29;177997;-73
2020/12/10 06:45:37;;;;;;;139.77;35.07;;;0.70;99.90;;;;;;4649429;29;179291;-74
2020/12/10 06:48:09;;;;;;;90.27;31.57;;;1.10;99.90;;;;;;4649887;29;178372;-73
2020/12/10 06:50:38;;;;;;;69.73;32.33;;;0.70;99.90;;;;;;4649212;29;179483;-72
2020/12/10 06:53:21;;;;;;;70.70;30.30;;;1.10;99.90;;;;;;4647224;29;178669;-73
2020/12/10 06:55:56;;;;;;;77.07;32.30;;;0.70;99.90;;;;;;4647485;29;183193;-74
2020/12/10 06:58:44;;;;;;;92.70;32.50;;;0.70;99.90;;;;;;4648516;29;181096;-75
2020/12/10 07:01:35;;;;;;;81.80;32.63;;;0.70;99.90;;;;;;4631306;29;177936;-76
2020/12/10 07:07:13;;;;;;;70.80;30.73;;;0.70;99.90;;;;;;4648109;29;181647;-75
2020/12/10 07:09:58;;;;;;;131.43;35.03;;;0.70;99.90;;;;;;4649112;29;178513;-75
2020/12/10 07:12:26;;;;;;;73.40;30.97;;;0.70;99.90;;;;;;4649284;29;177967;-76
2020/12/10 07:15:13;;;;;;;73.87;31.37;;;0.70;99.90;;;;;;4648726;29;176624;-76
2020/12/10 07:17:40;;;;;;;116.07;34.07;;;0.70;99.90;;;;;;4648032;29;181618;-75
2020/12/10 07:20:07;;;;;;;123.17;35.63;;;0.70;99.90;;;;;;4648669;29;177946;-75
2020/12/10 07:22:33;;;;;;;101.70;33.13;;;0.70;99.90;;;;;;4646844;29;181277;-76
2020/12/10 07:24:59;;;;;;;77.43;30.53;;;0.70;99.90;;;;;;4648982;29;178642;-75
2020/12/10 07:27:26;;;;;;;89.57;30.67;;;0.70;99.90;;;;;;4648965;29;179084;-72
2020/12/10 07:29:53;;;;;;;65.27;28.77;;;0.70;99.90;;;;;;4648327;29;178382;-75
2020/12/10 07:32:19;;;;;;;63.03;27.00;;;0.70;99.90;;;;;;4647289;29;178597;-73
2020/12/10 07:34:46;;;;;;;64.03;27.10;;;0.60;99.90;;;;;;4648752;29;178551;-74
2020/12/10 07:37:14;;;;;;;56.33;26.77;;;0.60;99.90;;;;;;4647326;29;179305;-74
2020/12/10 07:39:40;;;;;;;64.80;26.83;;;0.50;99.90;;;;;;4648763;29;178399;-72
2020/12/10 07:42:07;;;;;;;80.53;29.30;;;0.60;99.90;;;;;;4647957;29;177946;-74
2020/12/10 07:44:36;;;;;;;152.83;33.67;;;0.60;99.90;;;;;;4647473;29;178865;-75
2020/12/10 07:47:11;;;;;;;60.77;28.33;;;0.60;99.90;;;;;;4647091;29;183238;-75
2020/12/10 07:49:37;;;;;;;57.97;26.67;;;0.60;99.90;;;;;;4646668;29;181687;-76
2020/12/10 07:52:11;;;;;;;120.17;32.83;;;0.60;99.90;;;;;;4644916;29;178987;-74
2020/12/10 07:54:46;;;;;;;82.00;29.97;;;0.60;99.90;;;;;;4642575;29;178411;-73
2020/12/10 07:57:29;;;;;;;57.93;27.37;;;0.60;99.90;;;;;;4648887;29;178999;-73
2020/12/10 08:00:07;;;;;;;93.63;31.60;;;0.50;99.90;;;;;;4650881;29;178794;-75
2020/12/10 08:02:50;;;;;;;61.40;28.47;;;0.60;99.90;;;;;;4648926;29;179187;-73
2020/12/10 08:05:17;;;;;;;77.50;29.17;;;0.60;99.90;;;;;;4652059;29;176560;-76
2020/12/10 08:07:49;;;;;;;177.83;37.53;;;0.60;99.90;;;;;;4650706;29;179511;-76
2020/12/10 08:10:26;;;;;;;71.60;28.40;;;0.60;99.90;;;;;;4650856;29;178468;-72
2020/12/10 08:13:20;;;;;;;70.70;30.60;;;0.60;99.90;;;;;;4649037;29;181296;-76
2020/12/10 08:15:48;;;;;;;80.43;30.60;;;0.60;99.90;;;;;;4650513;29;178602;-75
2020/12/10 08:18:19;;;;;;;78.63;30.07;;;0.50;99.90;;;;;;4649677;29;179359;-72
2020/12/10 08:20:50;;;;;;;68.37;29.07;;;0.60;99.90;;;;;;4649863;29;181031;-72
2020/12/10 08:23:18;;;;;;;89.00;30.97;;;0.60;99.90;;;;;;4650407;29;178794;-75
2020/12/10 08:25:46;;;;;;;140.93;33.53;;;0.70;99.90;;;;;;4650489;29;178078;-75
2020/12/10 08:28:13;;;;;;;74.60;29.37;;;0.50;99.90;;;;;;4650055;29;178835;-76
2020/12/10 08:30:50;;;;;;;71.73;29.80;;;0.60;99.90;;;;;;4637470;29;177667;-75
2020/12/10 08:33:17;;;;;;;68.23;29.13;;;0.60;99.90;;;;;;4630394;29;178042;-76
2020/12/10 08:35:44;;;;;;;73.33;29.27;;;0.60;99.90;;;;;;4633281;29;178655;-76
2020/12/10 08:38:11;;;;;;;67.03;29.33;;;0.60;99.90;;;;;;4645715;29;183392;-74
2020/12/10 08:40:37;;;;;;;72.97;30.03;;;0.70;99.90;;;;;;4647885;29;180231;-72
2020/12/10 08:43:09;;;;;;;75.93;30.90;;;0.70;99.90;;;;;;4647466;29;178907;-71
2020/12/10 08:45:44;;;;;;;70.07;30.17;;;0.70;99.90;;;;;;4648034;29;177953;-74
2020/12/10 08:48:12;;;;;;;70.90;28.83;;;0.70;99.90;;;;;;4648245;29;178829;-76
2020/12/10 08:50:50;;;;;;;65.43;28.77;;;0.70;99.90;;;;;;4647539;29;178758;-75
2020/12/10 08:53:17;;;;;;;67.27;28.87;;;0.70;99.90;;;;;;4644913;29;178416;-76
2020/12/10 08:55:46;;;;;;;69.70;29.43;;;0.70;99.90;;;;;;4646714;29;176990;-76
2020/12/10 08:58:23;;;;;;;70.10;29.17;;;0.70;99.90;;;;;;4647315;29;179200;-77
2020/12/10 09:00:56;;;;;;;64.83;28.53;;;0.70;99.90;;;;;;4645209;29;179265;-76
2020/12/10 09:03:24;;;;;;;70.83;30.33;;;0.80;99.90;;;;;;4644164;29;181326;-75
2020/12/10 09:05:52;;;;;;;70.13;30.27;;;0.80;99.90;;;;;;4647129;29;179583;-77
2020/12/10 09:08:18;;;;;;;65.73;28.80;;;0.70;99.90;;;;;;4647257;29;179701;-77
2020/12/10 09:10:45;;;;;;;69.37;30.47;;;0.90;99.90;;;;;;4647600;29;178277;-75
2020/12/10 09:13:11;;;;;;;72.70;29.07;;;0.80;99.90;;;;;;4646635;29;177929;-74
2020/12/10 09:15:42;;;;;;;66.57;27.97;;;0.70;99.90;;;;;;4646278;29;179326;-76
2020/12/10 09:18:10;;;;;;;71.63;29.20;;;0.80;99.90;;;;;;4647051;29;180311;-75
2020/12/10 09:20:37;;;;;;;73.53;29.30;;;0.70;99.90;;;;;;4647832;29;178343;-73
2020/12/10 09:23:03;;;;;;;65.27;27.50;;;0.80;99.90;;;;;;4646170;29;179982;-75
2020/12/10 09:25:30;;;;;;;72.70;30.00;;;0.80;99.90;;;;;;4633047;29;178391;-76
2020/12/10 09:27:56;;;;;;;68.97;28.53;;;0.80;99.90;;;;;;4645481;29;182938;-71
2020/12/10 09:30:22;;;;;;;72.57;29.37;;;0.80;99.90;;;;;;4645189;29;182999;-75
2020/12/10 09:32:49;;;;;;;69.23;28.60;;;0.80;99.90;;;;;;4646984;29;177921;-72
2020/12/10 09:35:16;;;;;;;65.50;28.57;;;0.80;99.90;;;;;;4659995;29;179146;-73
2020/12/10 09:37:43;;;;;;;71.07;29.57;;;0.80;99.90;;;;;;4647123;29;179429;-70
2020/12/10 09:40:12;;;;;;;68.47;27.77;;;0.80;99.90;;;;;;4646587;29;178443;-75
2020/12/10 09:42:41;;;;;;;69.83;27.93;;;0.80;99.90;;;;;;4646414;29;178515;-71
2020/12/10 09:45:13;;;;;;;68.83;27.30;;;0.80;99.90;;;;;;4647945;29;177112;-73
2020/12/10 09:47:42;;;;;;;74.83;29.40;;;0.80;99.90;;;;;;4646395;29;180119;-73
2020/12/10 09:50:18;;;;;;;67.53;27.77;;;0.90;99.90;;;;;;4646610;29;177921;-72
2020/12/10 09:52:53;;;;;;;62.30;26.67;;;0.80;99.90;;;;;;4643326;29;182771;-72
2020/12/10 09:55:38;;;;;;;74.20;28.27;;;0.70;99.90;;;;;;4646695;29;178285;-73
2020/12/10 09:58:04;;;;;;;75.33;29.37;;;0.70;99.90;;;;;;4647053;29;179253;-70
2020/12/10 10:00:31;;;;;;;71.73;27.27;;;0.70;99.90;;;;;;4646273;29;178437;-73
2020/12/10 10:02:57;;;;;;;62.03;26.70;;;0.70;99.90;;;;;;4644278;29;178063;-74
2020/12/10 10:05:24;;;;;;;63.30;27.03;;;0.70;99.90;;;;;;4646543;29;177962;-73
2020/12/10 10:07:50;;;;;;;64.37;26.33;;;0.80;99.90;;;;;;4646860;29;180028;-69
2020/12/10 10:10:16;;;;;;;64.67;26.63;;;0.70;99.90;;;;;;4647006;29;180034;-74
2020/12/10 10:12:42;;;;;;;58.53;24.80;;;0.80;99.90;;;;;;4645044;29;179085;-73
2020/12/10 10:15:08;;;;;;;56.63;24.33;;;0.70;99.90;;;;;;4647015;29;178133;-74
2020/12/10 10:17:35;;;;;;;62.10;25.77;;;0.50;99.90;;;;;;4644348;29;182205;-74
2020/12/10 10:20:03;;;;;;;64.07;25.13;;;0.70;99.90;;;;;;4645548;29;181160;-74
2020/12/10 10:22:31;;;;;;;61.33;26.63;;;0.70;99.90;;;;;;4646089;29;178667;-73
2020/12/10 10:24:59;;;;;;;59.33;23.60;;;0.70;99.90;;;;;;4645803;29;179162;-75
2020/12/10 10:27:25;;;;;;;62.47;24.80;;;0.70;99.90;;;;;;4646156;29;179173;-74
2020/12/10 10:29:52;;;;;;;54.70;23.20;;;0.70;99.90;;;;;;4645750;29;178342;-73
2020/12/10 10:32:18;;;;;;;62.17;24.60;;;0.80;99.90;;;;;;4644032;29;178148;-74
2020/12/10 10:34:44;;;;;;;59.17;24.73;;;0.80;99.90;;;;;;4647224;29;176987;-75
2020/12/10 10:37:12;;;;;;;56.67;24.43;;;0.70;99.90;;;;;;4656497;29;178933;-73
2020/12/10 10:39:38;;;;;;;60.33;24.50;;;0.70;99.90;;;;;;4644728;29;182406;-75
2020/12/10 10:42:05;;;;;;;60.23;25.93;;;0.70;99.90;;;;;;4653549;29;181314;-76
2020/12/10 10:44:31;;;;;;;60.77;24.87;;;0.80;99.90;;;;;;4663842;29;178423;-76
2020/12/10 10:46:58;;;;;;;61.40;25.77;;;0.80;99.90;;;;;;4663696;29;179847;-72
2020/12/10 10:49:24;;;;;;;53.93;23.93;;;0.70;99.90;;;;;;4663044;29;180634;-76
2020/12/10 10:51:51;;;;;;;60.80;25.77;;;0.70;99.90;;;;;;4662141;29;178478;-75
2020/12/10 10:54:17;;;;;;;62.60;24.77;;;0.80;99.90;;;;;;4662146;29;178762;-75
2020/12/10 10:56:43;;;;;;;56.33;24.10;;;0.80;99.90;;;;;;4648706;29;178810;-73
2020/12/10 10:59:10;;;;;;;57.47;24.07;;;0.80;99.90;;;;;;4645574;29;179605;-77
2020/12/10 11:01:36;;;;;;;54.10;23.83;;;0.80;99.90;;;;;;4643590;29;179408;-77
2020/12/10 11:04:02;;;;;;;58.57;23.93;;;1.00;99.90;;;;;;4644982;29;178663;-76
2020/12/10 11:06:29;;;;;;;58.50;24.93;;;0.70;99.90;;;;;;4644127;29;183058;-76
2020/12/10 11:08:57;;;;;;;62.60;22.67;;;0.80;99.90;;;;;;4645990;29;181868;-74
2020/12/10 11:11:24;;;;;;;64.47;24.83;;;0.80;99.90;;;;;;4645503;29;178765;-75
2020/12/10 11:13:51;;;;;;;68.10;25.47;;;0.80;99.90;;;;;;4645311;29;178078;-74
2020/12/10 11:16:17;;;;;;;58.27;24.40;;;0.80;99.90;;;;;;4646310;29;178803;-73
2020/12/10 11:18:45;;;;;;;66.37;25.40;;;0.80;99.90;;;;;;4645593;29;178018;-75
2020/12/10 11:21:13;;;;;;;65.87;26.07;;;0.80;99.90;;;;;;4645610;29;178430;-74
2020/12/10 11:23:39;;;;;;;66.80;26.23;;;0.80;99.90;;;;;;4647149;29;177228;-74
2020/12/10 11:26:06;;;;;;;62.93;25.17;;;0.70;99.90;;;;;;4648583;29;179029;-76
2020/12/10 11:28:32;;;;;;;57.73;24.30;;;1.10;99.90;;;;;;4647483;29;183523;-75
2020/12/10 11:30:58;;;;;;;64.67;25.37;;;0.80;99.90;;;;;;4647168;29;182358;-72
2020/12/10 11:33:25;;;;;;;63.07;24.40;;;0.50;99.90;;;;;;4648108;29;177883;-74
2020/12/10 11:35:52;;;;;;;61.63;23.67;;;0.70;99.90;;;;;;4648635;29;180626;-75
2020/12/10 11:38:19;;;;;;;63.90;24.87;;;0.70;99.90;;;;;;4648709;29;178004;-75
2020/12/10 11:40:45;;;;;;;64.63;24.83;;;0.60;99.90;;;;;;4648715;29;178013;-74
2020/12/10 11:43:16;;;;;;;65.30;24.20;;;0.60;99.90;;;;;;4648043;29;178068;-73
2020/12/10 11:45:42;;;;;;;57.47;24.33;;;0.70;99.90;;;;;;4648345;29;178844;-75
2020/12/10 11:48:08;;;;;;;59.07;24.60;;;0.70;99.90;;;;;;4649089;29;177157;-75
2020/12/10 11:50:36;;;;;;;61.03;24.00;;;0.70;99.90;;;;;;4645869;29;178932;-74
2020/12/10 11:53:04;;;;;;;61.47;25.03;;;0.70;99.90;;;;;;4641901;29;178133;-74
2020/12/10 11:55:30;;;;;;;60.93;29.83;;;0.70;99.90;;;;;;4644491;29;182253;-74
2020/12/10 11:57:57;;;;;;;62.93;24.50;;;0.70;99.90;;;;;;4643745;29;183690;-74
2020/12/10 12:00:23;;;;;;;51.13;22.20;;;0.70;99.90;;;;;;4647524;29;178108;-75
2020/12/10 12:02:51;;;;;;;67.47;24.90;;;0.70;99.90;;;;;;4645078;29;178799;-75
2020/12/10 12:05:19;;;;;;;63.00;24.70;;;0.70;99.90;;;;;;4646483;29;180905;-74
2020/12/10 12:07:47;;;;;;;51.17;21.07;;;0.60;99.90;;;;;;4646904;29;179312;-74
2020/12/10 12:10:15;;;;;;;60.93;22.53;;;0.70;99.90;;;;;;4648649;29;178429;-75
2020/12/10 12:12:44;;;;;;;52.70;22.80;;;0.70;99.90;;;;;;4648007;29;176728;-75
2020/12/10 12:15:14;;;;;;;48.40;21.13;;;0.70;99.90;;;;;;4641735;29;179318;-71
2020/12/10 12:17:45;;;;;;;48.30;21.87;;;0.70;99.90;;;;;;4647937;29;178473;-75
2020/12/10 12:20:13;;;;;;;58.23;21.83;;;1.00;99.90;;;;;;4644247;29;183227;-72
2020/12/10 12:22:40;;;;;;;56.10;22.60;;;0.70;99.90;;;;;;4642387;29;180232;-72
2020/12/10 12:25:07;;;;;;;46.37;20.33;;;0.70;99.90;;;;;;4659761;29;181439;-73
2020/12/10 12:27:35;;;;;;;52.67;22.03;;;0.70;99.90;;;;;;4647582;29;179378;-75
2020/12/10 12:30:03;;;;;;;52.60;22.47;;;0.70;99.90;;;;;;4646146;29;178589;-74
2020/12/10 12:32:29;;;;;;;50.80;21.27;;;0.70;99.90;;;;;;4646243;29;178473;-74
2020/12/10 12:34:56;;;;;;;55.77;21.57;;;0.70;99.90;;;;;;4647231;29;179081;-74
2020/12/10 12:37:23;;;;;;;47.87;20.23;;;0.70;99.90;;;;;;4648366;29;178404;-72
2020/12/10 12:39:49;;;;;;;45.03;20.40;;;0.70;99.90;;;;;;4648867;29;178790;-73
2020/12/10 12:42:15;;;;;;;50.40;21.30;;;0.70;99.90;;;;;;4646511;29;178357;-72
2020/12/10 12:44:41;;;;;;;47.37;20.67;;;0.70;99.90;;;;;;4645833;29;182005;-73
2020/12/10 12:47:08;;;;;;;53.03;22.47;;;0.60;99.90;;;;;;4647282;29;181105;-72
2020/12/10 12:49:36;;;;;;;48.23;21.53;;;0.70;99.90;;;;;;4647975;29;178166;-74
2020/12/10 12:52:25;;;;;;;44.47;20.10;;;1.10;99.90;;;;;;4646624;29;178409;-73
2020/12/10 12:54:54;;;;;;;52.60;22.10;;;0.70;99.90;;;;;;4645632;29;179174;-75
2020/12/10 12:57:21;;;;;;;47.07;20.63;;;0.70;99.90;;;;;;4640529;29;179215;-74
2020/12/10 12:59:48;;;;;;;53.07;25.20;;;1.00;99.90;;;;;;4646202;29;179478;-74
2020/12/10 13:02:16;;;;;;;44.87;21.73;;;0.70;99.90;;;;;;4645032;29;179144;-75
2020/12/10 13:04:43;;;;;;;52.60;23.90;;;0.60;99.90;;;;;;4642267;29;180937;-73
2020/12/10 13:07:09;;;;;;;54.00;31.53;;;0.70;99.90;;;;;;4643361;29;178863;-72
2020/12/10 13:09:37;;;;;;;46.67;24.33;;;0.70;99.90;;;;;;4645160;29;183759;-75
2020/12/10 13:12:04;;;;;;;49.43;22.03;;;0.70;99.90;;;;;;4644678;29;178524;-74
2020/12/10 13:14:30;;;;;;;43.57;21.13;;;0.70;99.90;;;;;;4646217;29;180370;-74
2020/12/10 13:16:56;;;;;;;51.73;21.03;;;0.60;99.90;;;;;;4647642;29;179169;-74
2020/12/10 13:19:23;;;;;;;50.47;23.47;;;1.10;99.90;;;;;;4644784;29;178036;-75
2020/12/10 13:21:50;;;;;;;48.23;22.43;;;0.90;99.90;;;;;;4640673;29;178553;-73
2020/12/10 13:24:16;;;;;;;57.50;23.07;;;0.60;99.90;;;;;;4644401;29;180266;-74
2020/12/10 13:26:42;;;;;;;50.57;21.53;;;0.70;99.90;;;;;;4645183;29;178017;-74
2020/12/10 13:29:10;;;;;;;45.10;21.30;;;0.60;99.90;;;;;;4646649;29;180494;-73
2020/12/10 13:31:36;;;;;;;45.70;20.53;;;0.60;99.90;;;;;;4646260;29;179067;-69
2020/12/10 13:34:04;;;;;;;51.97;22.30;;;0.60;99.90;;;;;;4645233;29;182681;-73
2020/12/10 13:36:32;;;;;;;46.30;20.13;;;0.60;99.90;;;;;;4647036;29;181542;-74
2020/12/10 13:39:01;;;;;;;46.90;20.93;;;0.60;99.90;;;;;;4662216;29;178034;-75
2020/12/10 13:41:27;;;;;;;49.40;22.10;;;0.70;99.90;;;;;;4657322;29;178103;-74
2020/12/10 13:43:54;;;;;;;56.00;23.17;;;0.60;99.90;;;;;;4653029;29;178603;-73
2020/12/10 13:46:20;;;;;;;45.90;20.80;;;0.60;99.90;;;;;;4655986;29;178720;-74
2020/12/10 13:48:46;;;;;;;38.57;19.30;;;0.60;99.90;;;;;;4645619;29;178976;-73
2020/12/10 13:51:28;;;;;;;44.13;19.93;;;0.60;99.90;;;;;;4642667;29;178636;-75
2020/12/10 13:53:54;;;;;;;44.03;21.17;;;0.60;99.90;;;;;;4636878;29;179236;-74
2020/12/10 13:56:20;;;;;;;44.30;22.00;;;0.60;99.90;;;;;;4645490;29;180711;-75
2020/12/10 13:58:50;;;;;;;80.43;35.90;;;0.50;99.90;;;;;;4646487;29;183367;-72
2020/12/10 14:01:17;;;;;;;63.40;26.67;;;0.60;99.90;;;;;;4645280;29;179902;-73
2020/12/10 14:03:44;;;;;;;51.77;20.80;;;0.50;99.90;;;;;;4639629;29;179987;-73
2020/12/10 14:06:18;;;;;;;43.77;19.57;;;0.60;99.90;;;;;;4647700;29;178891;-74
2020/12/10 14:08:44;;;;;;;45.40;20.27;;;0.70;99.90;;;;;;4644839;29;178052;-74
2020/12/10 14:11:11;;;;;;;59.97;22.67;;;0.50;99.90;;;;;;4646378;29;179199;-70
2020/12/10 14:13:42;;;;;;;56.10;22.93;;;0.80;99.90;;;;;;4644662;29;182779;-72
2020/12/10 14:16:08;;;;;;;54.40;22.30;;;0.40;99.90;;;;;;4647417;29;177732;-74
2020/12/10 14:18:34;;;;;;;49.93;22.47;;;0.50;99.90;;;;;;4647016;29;178818;-74
2020/12/10 14:21:00;;;;;;;54.70;23.90;;;0.50;99.90;;;;;;4643439;29;178216;-73
2020/12/10 14:23:27;;;;;;;48.20;21.17;;;0.50;99.90;;;;;;4641520;29;182665;-74
2020/12/10 14:25:53;;;;;;;54.10;22.73;;;0.50;99.90;;;;;;4642494;29;182589;-73
2020/12/10 14:28:19;;;;;;;54.13;23.00;;;0.50;99.90;;;;;;4644371;29;178624;-71
2020/12/10 14:30:46;;;;;;;53.00;22.37;;;1.00;99.90;;;;;;4645012;29;177885;-71
2020/12/10 14:33:12;;;;;;;55.00;24.27;;;0.50;99.90;;;;;;4644263;29;180245;-72
2020/12/10 14:35:51;;;;;;;77.73;24.07;;;0.50;99.90;;;;;;4644992;29;179294;-74
2020/12/10 14:38:22;;;;;;;58.13;23.20;;;0.40;99.90;;;;;;4645012;29;179053;-73
2020/12/10 14:40:50;;;;;;;51.53;22.90;;;0.40;99.90;;;;;;4645193;29;177122;-73
2020/12/10 14:43:17;;;;;;;55.07;23.63;;;0.50;99.90;;;;;;4645189;29;178729;-74
2020/12/10 14:45:43;;;;;;;60.60;22.67;;;0.50;99.90;;;;;;4653280;29;178797;-74
2020/12/10 14:48:11;;;;;;;51.80;22.27;;;0.50;99.90;;;;;;4647392;29;181620;-75
2020/12/10 14:50:37;;;;;;;72.77;23.37;;;0.50;99.90;;;;;;4645180;29;178670;-74
2020/12/10 14:53:03;;;;;;;56.60;23.00;;;0.50;99.90;;;;;;4641352;29;182202;-74
2020/12/10 14:55:31;;;;;;;58.23;24.20;;;0.50;99.90;;;;;;4643193;29;178556;-74
2020/12/10 14:57:57;;;;;;;85.17;26.40;;;0.50;99.90;;;;;;4643591;29;177989;-74
2020/12/10 15:00:23;;;;;;;135.33;29.37;;;0.50;99.90;;;;;;4647763;29;178353;-74
2020/12/10 15:02:51;;;;;;;71.17;25.50;;;0.60;99.90;;;;;;4646342;29;179467;-74
2020/12/10 15:05:18;;;;;;;59.40;24.27;;;0.50;99.90;;;;;;4646025;29;178460;-73
2020/12/10 15:07:44;;;;;;;69.20;26.17;;;0.50;99.90;;;;;;4648871;29;178970;-74
2020/12/10 15:10:13;;;;;;;68.17;24.87;;;0.60;99.90;;;;;;4646150;29;180976;-74
2020/12/10 15:12:39;;;;;;;117.60;29.83;;;0.50;99.90;;;;;;4644925;29;182957;-74
2020/12/10 15:15:05;;;;;;;66.20;24.60;;;0.50;99.90;;;;;;4666486;29;182574;-74
2020/12/10 15:17:31;;;;;;;110.57;28.03;;;0.50;99.90;;;;;;4665405;29;178015;-74
2020/12/10 15:19:58;;;;;;;70.67;25.40;;;0.50;99.90;;;;;;4666673;29;178370;-73
2020/12/10 15:22:24;;;;;;;64.20;25.13;;;0.50;99.90;;;;;;4665960;29;178530;-73
2020/12/10 15:24:50;;;;;;;102.83;28.03;;;0.50;99.90;;;;;;4649251;29;178523;-73
2020/12/10 15:27:17;;;;;;;71.73;25.77;;;0.50;99.90;;;;;;4648408;29;178562;-74
2020/12/10 15:29:43;;;;;;;102.33;25.87;;;0.50;99.90;;;;;;4649832;29;176666;-73
2020/12/10 15:32:09;;;;;;;67.10;25.20;;;0.50;99.90;;;;;;4647933;29;179835;-74
2020/12/10 15:34:36;;;;;;;74.90;25.63;;;0.50;99.90;;;;;;4648968;29;179112;-74
2020/12/10 15:37:03;;;;;;;65.50;24.13;;;0.50;99.90;;;;;;4647307;29;182239;-74
2020/12/10 15:39:29;;;;;;;73.23;26.37;;;0.60;99.90;;;;;;4649408;29;179007;-74
2020/12/10 15:42:03;;;;;;;82.37;36.83;;;0.60;99.90;;;;;;4647089;29;179849;-74
2020/12/10 15:44:29;;;;;;;59.83;24.27;;;0.60;99.90;;;;;;4648895;29;178646;-74
2020/12/10 15:46:56;;;;;;;78.47;27.27;;;0.60;99.90;;;;;;4649003;29;178042;-75
2020/12/10 15:49:23;;;;;;;78.57;28.80;;;0.50;99.90;;;;;;4648759;29;178077;-74
2020/12/10 15:51:52;;;;;;;104.43;28.87;;;0.60;99.90;;;;;;4647801;29;179296;-74
2020/12/10 15:54:19;;;;;;;85.37;27.83;;;0.50;99.90;;;;;;4647591;29;177096;-74
2020/12/10 15:56:46;;;;;;;81.87;29.73;;;0.80;99.90;;;;;;4648540;29;177916;-74
2020/12/10 15:59:12;;;;;;;61.53;26.10;;;0.60;99.90;;;;;;4648468;29;177972;-72
2020/12/10 16:01:39;;;;;;;70.50;26.00;;;0.60;99.90;;;;;;4645189;29;181732;-73
2020/12/10 16:04:05;;;;;;;60.80;25.43;;;0.50;99.90;;;;;;4648034;29;182330;-74
2020/12/10 16:06:32;;;;;;;64.17;25.23;;;0.60;99.90;;;;;;4662334;29;178493;-74
2020/12/10 16:08:59;;;;;;;66.00;26.23;;;0.60;99.90;;;;;;4647737;29;178564;-73
2020/12/10 16:11:26;;;;;;;61.80;25.00;;;0.60;99.90;;;;;;4646528;29;181391;-73
2020/12/10 16:13:53;;;;;;;67.03;25.43;;;0.60;99.90;;;;;;4648561;29;177967;-73
2020/12/10 16:16:19;;;;;;;74.00;26.00;;;0.60;99.90;;;;;;4648356;29;178829;-73
2020/12/10 16:18:46;;;;;;;60.43;24.50;;;0.60;99.90;;;;;;4648464;29;176675;-73
2020/12/10 16:21:12;;;;;;;65.40;24.37;;;0.60;99.90;;;;;;4645569;29;179344;-73
2020/12/10 16:23:38;;;;;;;107.53;26.27;;;0.60;99.90;;;;;;4646928;29;179470;-71
2020/12/10 16:26:05;;;;;;;59.10;23.90;;;0.60;99.90;;;;;;4647338;29;181483;-73
2020/12/10 16:28:32;;;;;;;55.73;22.70;;;0.60;99.90;;;;;;4648056;29;177955;-73
2020/12/10 16:30:59;;;;;;;56.03;22.07;;;0.60;99.90;;;;;;4648165;29;179362;-73
2020/12/10 16:33:25;;;;;;;89.30;23.83;;;0.60;99.90;;;;;;4646891;29;178087;-74
2020/12/10 16:35:52;;;;;;;65.30;24.00;;;0.60;99.90;;;;;;4647973;29;178353;-74
2020/12/10 16:38:18;;;;;;;51.97;21.47;;;0.60;99.90;;;;;;4647187;29;177958;-74
2020/12/10 16:40:45;;;;;;;65.83;22.53;;;0.60;99.90;;;;;;4647610;29;178674;-74
2020/12/10 16:43:11;;;;;;;65.20;24.30;;;0.60;99.90;;;;;;4645944;29;178509;-73
2020/12/10 16:45:38;;;;;;;60.77;22.97;;;0.60;99.90;;;;;;4646838;29;178720;-74
2020/12/10 16:48:05;;;;;;;54.13;22.43;;;0.60;99.90;;;;;;4648495;29;178049;-74
2020/12/10 16:50:31;;;;;;;51.60;21.57;;;0.60;99.90;;;;;;4643525;29;183275;-74
2020/12/10 16:52:57;;;;;;;71.37;24.47;;;0.60;99.90;;;;;;4645656;29;181544;-74
2020/12/10 16:55:24;;;;;;;100.43;25.80;;;0.60;99.90;;;;;;4646802;29;177934;-74
2020/12/10 16:57:50;;;;;;;73.83;24.20;;;0.60;99.90;;;;;;4643665;29;179112;-75
2020/12/10 17:00:16;;;;;;;102.40;26.03;;;0.60;99.90;;;;;;4646030;29;180368;-73
2020/12/10 17:02:52;;;;;;;61.50;23.20;;;0.70;99.90;;;;;;4646559;29;178601;-73
2020/12/10 17:05:22;;;;;;;60.83;22.70;;;0.60;99.90;;;;;;4644750;29;178103;-73
2020/12/10 17:07:48;;;;;;;54.23;23.10;;;0.60;99.90;;;;;;4644871;29;177083;-71
2020/12/10 17:10:15;;;;;;;60.03;23.03;;;0.60;99.90;;;;;;4642976;29;182207;-73
2020/12/10 17:12:43;;;;;;;73.77;24.00;;;0.60;99.90;;;;;;4646154;29;178739;-72
2020/12/10 17:15:09;;;;;;;50.40;21.27;;;0.60;99.90;;;;;;4643444;29;182126;-72
2020/12/10 17:17:35;;;;;;;64.40;22.57;;;0.60;99.90;;;;;;4647229;29;178073;-73
2020/12/10 17:20:01;;;;;;;60.07;22.90;;;0.60;99.90;;;;;;4645273;29;181214;-72
2020/12/10 17:22:29;;;;;;;59.93;21.37;;;0.50;99.90;;;;;;4641760;29;179924;-73
2020/12/10 17:24:55;;;;;;;74.57;23.87;;;0.50;99.90;;;;;;4646901;29;178074;-73
2020/12/10 17:27:21;;;;;;;77.10;25.17;;;0.50;99.90;;;;;;4646192;29;178843;-73
2020/12/10 17:29:47;;;;;;;50.07;20.10;;;0.50;99.90;;;;;;4645562;29;178645;-72
2020/12/10 17:32:13;;;;;;;46.23;19.83;;;0.50;99.90;;;;;;4644416;29;178618;-73
2020/12/10 17:34:40;;;;;;;52.03;20.33;;;0.60;99.90;;;;;;4641877;29;179236;-73
2020/12/10 17:37:09;;;;;;;46.27;19.97;;;0.50;99.90;;;;;;4641041;29;180136;-73